PRIVATE WETTERSTATION BILLIGHEIM-ALLFELD                       ZURCK
Wetterdaten: Samstag, 25.11.2017
Datum Zeit Temp. A. Temp. A. min Temp. A. max Feuchte A. Luftdruck Regen Wind Richtung Richtung Sonnenschein ET Solar Taupunkt Windchill Windben Empfang
25.11.2017 00:00 8,7 C 8,7 C 8,8 C 90 % 1011,3 hPa 0,0 l/m 4,8 km/h (1 Bft) S-SO 157 0 min 0,000 mm 0 W/m 7,2 C 8,7 C 11,3 km/h (2 Bft) 98 %
25.11.2017 00:10 8,6 C 8,6 C 8,7 C 90 % 1011,3 hPa 0,0 l/m 4,8 km/h (1 Bft) S 180 0 min 0,000 mm 0 W/m 7,1 C 8,6 C 9,7 km/h (2 Bft) 97 %
25.11.2017 00:20 8,6 C 8,6 C 8,7 C 90 % 1011,2 hPa 0,0 l/m 4,8 km/h (1 Bft) S 180 0 min 0,000 mm 0 W/m 7,1 C 8,6 C 9,7 km/h (2 Bft) 97 %
25.11.2017 00:30 8,7 C 8,6 C 8,7 C 90 % 1010,9 hPa 0,0 l/m 4,8 km/h (1 Bft) S-SO 157 0 min 0,000 mm 0 W/m 7,2 C 8,7 C 11,3 km/h (2 Bft) 98 %
25.11.2017 00:40 8,7 C 8,7 C 8,7 C 90 % 1010,9 hPa 0,0 l/m 4,8 km/h (1 Bft) S 180 0 min 0,000 mm 0 W/m 7,2 C 8,7 C 11,3 km/h (2 Bft) 97 %
25.11.2017 00:50 8,7 C 8,7 C 8,7 C 90 % 1010,8 hPa 0,0 l/m 4,8 km/h (1 Bft) S-SO 157 0 min 0,000 mm 0 W/m 7,2 C 8,7 C 9,7 km/h (2 Bft) 97 %
25.11.2017 01:00 8,7 C 8,7 C 8,7 C 90 % 1010,7 hPa 0,0 l/m 4,8 km/h (1 Bft) S-SO 157 0 min 0,000 mm 0 W/m 7,2 C 8,7 C 11,3 km/h (2 Bft) 98 %
25.11.2017 01:10 8,8 C 8,7 C 8,8 C 90 % 1010,5 hPa 0,0 l/m 3,2 km/h (1 Bft) S-SO 157 0 min 0,000 mm 0 W/m 7,3 C 8,8 C 16,1 km/h (3 Bft) 98 %
25.11.2017 01:20 8,8 C 8,8 C 8,8 C 90 % 1010,4 hPa 0,0 l/m 4,8 km/h (1 Bft) S 180 0 min 0,000 mm 0 W/m 7,3 C 8,8 C 11,3 km/h (2 Bft) 98 %
25.11.2017 01:30 8,8 C 8,8 C 8,8 C 90 % 1010,2 hPa 0,0 l/m 4,8 km/h (1 Bft) S 180 0 min 0,000 mm 0 W/m 7,3 C 8,8 C 11,3 km/h (2 Bft) 97 %
25.11.2017 01:40 8,7 C 8,7 C 8,8 C 90 % 1010,1 hPa 0,0 l/m 3,2 km/h (1 Bft) S 180 0 min 0,000 mm 0 W/m 7,2 C 8,7 C 8,0 km/h (2 Bft) 98 %
25.11.2017 01:50 8,8 C 8,7 C 8,8 C 90 % 1010,0 hPa 0,0 l/m 4,8 km/h (1 Bft) S-SO 157 0 min 0,000 mm 0 W/m 7,3 C 8,8 C 9,7 km/h (2 Bft) 97 %
25.11.2017 02:00 8,8 C 8,7 C 8,8 C 90 % 1010,0 hPa 0,0 l/m 1,6 km/h (1 Bft) S 180 0 min 0,000 mm 0 W/m 7,3 C 8,8 C 9,7 km/h (2 Bft) 98 %
25.11.2017 02:10 8,8 C 8,8 C 8,8 C 90 % 1010,0 hPa 0,0 l/m 4,8 km/h (1 Bft) S 180 0 min 0,000 mm 0 W/m 7,3 C 8,8 C 9,7 km/h (2 Bft) 97 %
25.11.2017 02:20 8,8 C 8,8 C 8,8 C 90 % 1010,0 hPa 0,0 l/m 4,8 km/h (1 Bft) S 180 0 min 0,000 mm 0 W/m 7,3 C 8,8 C 9,7 km/h (2 Bft) 88 %
25.11.2017 02:30 8,7 C 8,7 C 8,8 C 90 % 1009,9 hPa 0,0 l/m 4,8 km/h (1 Bft) S 180 0 min 0,000 mm 0 W/m 7,2 C 8,7 C 8,0 km/h (2 Bft) 98 %
25.11.2017 02:40 8,7 C 8,7 C 8,7 C 90 % 1009,8 hPa 0,2 l/m 4,8 km/h (1 Bft) SW 225 0 min 0,000 mm 0 W/m 7,2 C 8,7 C 9,7 km/h (2 Bft) 96 %
25.11.2017 02:50 8,7 C 8,7 C 8,7 C 90 % 1009,7 hPa 0,0 l/m 3,2 km/h (1 Bft) W-NW 292 0 min 0,000 mm 0 W/m 7,2 C 8,7 C 8,0 km/h (2 Bft) 98 %
25.11.2017 03:00 8,7 C 8,7 C 8,7 C 94 % 1009,5 hPa 0,0 l/m 0,0 km/h (0 Bft) N 0 0 min 0,000 mm 0 W/m 7,8 C 8,7 C 0,0 km/h (0 Bft) 97 %
25.11.2017 03:10 8,6 C 8,6 C 8,7 C 90 % 1009,2 hPa 0,4 l/m 0,0 km/h (0 Bft) N 0 0 min 0,000 mm 0 W/m 7,1 C 8,6 C 0,0 km/h (0 Bft) 97 %
25.11.2017 03:20 8,6 C 8,6 C 8,6 C 90 % 1009,1 hPa 0,2 l/m 0,0 km/h (0 Bft) W 270 0 min 0,000 mm 0 W/m 7,1 C 8,6 C 1,6 km/h (1 Bft) 98 %
25.11.2017 03:30 8,5 C 8,5 C 8,6 C 90 % 1009,0 hPa 0,4 l/m 3,2 km/h (1 Bft) S 180 0 min 0,000 mm 0 W/m 7,0 C 8,5 C 8,0 km/h (2 Bft) 98 %
25.11.2017 03:40 8,4 C 8,4 C 8,5 C 90 % 1008,8 hPa 0,2 l/m 3,2 km/h (1 Bft) S 180 0 min 0,000 mm 0 W/m 6,9 C 8,4 C 6,4 km/h (2 Bft) 97 %
25.11.2017 03:50 8,3 C 8,3 C 8,4 C 90 % 1008,6 hPa 0,2 l/m 0,0 km/h (0 Bft) S 180 0 min 0,000 mm 0 W/m 6,8 C 8,3 C 4,8 km/h (1 Bft) 97 %
25.11.2017 04:00 8,3 C 8,2 C 8,3 C 94 % 1008,6 hPa 0,4 l/m 0,0 km/h (0 Bft) N 0 0 min 0,000 mm 0 W/m 7,4 C 8,3 C 0,0 km/h (0 Bft) 98 %
25.11.2017 04:10 8,2 C 8,2 C 8,3 C 90 % 1008,4 hPa 0,2 l/m 1,6 km/h (1 Bft) S 180 0 min 0,000 mm 0 W/m 6,7 C 8,2 C 4,8 km/h (1 Bft) 97 %
25.11.2017 04:20 8,1 C 8,1 C 8,2 C 90 % 1008,2 hPa 0,2 l/m 0,0 km/h (0 Bft) S 180 0 min 0,000 mm 0 W/m 6,6 C 8,1 C 3,2 km/h (1 Bft) 98 %
25.11.2017 04:30 8,0 C 8,0 C 8,1 C 90 % 1008,2 hPa 0,4 l/m 1,6 km/h (1 Bft) S-SW 202 0 min 0,000 mm 0 W/m 6,5 C 8,0 C 6,4 km/h (2 Bft) 98 %
25.11.2017 04:40 7,9 C 7,9 C 8,0 C 90 % 1008,0 hPa 0,0 l/m 0,0 km/h (0 Bft) N 0 0 min 0,000 mm 0 W/m 6,4 C 7,9 C 0,0 km/h (0 Bft) 98 %
25.11.2017 04:50 7,9 C 7,9 C 7,9 C 90 % 1008,0 hPa 0,2 l/m 0,0 km/h (0 Bft) N 0 0 min 0,000 mm 0 W/m 6,4 C 7,9 C 0,0 km/h (0 Bft) 97 %
25.11.2017 05:00 7,8 C 7,8 C 7,9 C 90 % 1007,8 hPa 0,2 l/m 0,0 km/h (0 Bft) N 0 0 min 0,000 mm 0 W/m 6,3 C 7,8 C 0,0 km/h (0 Bft) 98 %
25.11.2017 05:10 7,8 C 7,8 C 7,9 C 90 % 1007,7 hPa 0,2 l/m 0,0 km/h (0 Bft) N 0 0 min 0,000 mm 0 W/m 6,3 C 7,8 C 0,0 km/h (0 Bft) 97 %
25.11.2017 05:20 7,8 C 7,8 C 7,8 C 90 % 1007,6 hPa 0,0 l/m 0,0 km/h (0 Bft) N 0 0 min 0,000 mm 0 W/m 6,3 C 7,8 C 0,0 km/h (0 Bft) 97 %
25.11.2017 05:30 7,7 C 7,7 C 7,8 C 90 % 1007,6 hPa 0,4 l/m 0,0 km/h (0 Bft) N 0 0 min 0,000 mm 0 W/m 6,2 C 7,7 C 0,0 km/h (0 Bft) 98 %
25.11.2017 05:40 7,7 C 7,7 C 7,7 C 90 % 1007,5 hPa 0,4 l/m 0,0 km/h (0 Bft) N 0 0 min 0,000 mm 0 W/m 6,2 C 7,7 C 0,0 km/h (0 Bft) 97 %
25.11.2017 05:50 7,6 C 7,6 C 7,7 C 90 % 1007,5 hPa 0,4 l/m 0,0 km/h (0 Bft) N 0 0 min 0,000 mm 0 W/m 6,1 C 7,6 C 0,0 km/h (0 Bft) 98 %
25.11.2017 06:00 7,6 C 7,6 C 7,7 C 90 % 1007,2 hPa 0,4 l/m 0,0 km/h (0 Bft) N 0 0 min 0,000 mm 0 W/m 6,1 C 7,6 C 0,0 km/h (0 Bft) 98 %
25.11.2017 06:10 7,6 C 7,6 C 7,6 C 90 % 1007,1 hPa 0,6 l/m 0,0 km/h (0 Bft) N 0 0 min 0,000 mm 0 W/m 6,1 C 7,6 C 0,0 km/h (0 Bft) 97 %
25.11.2017 06:20 7,5 C 7,5 C 7,6 C 90 % 1007,0 hPa 0,4 l/m 0,0 km/h (0 Bft) N 0 0 min 0,000 mm 0 W/m 6,0 C 7,5 C 0,0 km/h (0 Bft) 98 %
25.11.2017 06:30 7,4 C 7,4 C 7,5 C 90 % 1006,8 hPa 0,4 l/m 0,0 km/h (0 Bft) N 0 0 min 0,000 mm 0 W/m 5,9 C 7,4 C 0,0 km/h (0 Bft) 97 %
25.11.2017 06:40 7,4 C 7,4 C 7,5 C 90 % 1006,6 hPa 0,2 l/m 0,0 km/h (0 Bft) N 0 0 min 0,000 mm 0 W/m 5,9 C 7,4 C 0,0 km/h (0 Bft) 98 %
25.11.2017 06:50 7,4 C 7,4 C 7,4 C 90 % 1006,7 hPa 0,4 l/m 0,0 km/h (0 Bft) S-SW 202 0 min 0,000 mm 0 W/m 5,9 C 7,4 C 4,8 km/h (1 Bft) 97 %
25.11.2017 07:00 7,4 C 7,3 C 7,4 C 90 % 1006,6 hPa 0,2 l/m 1,6 km/h (1 Bft) S-SW 202 0 min 0,000 mm 0 W/m 5,9 C 7,4 C 3,2 km/h (1 Bft) 98 %
25.11.2017 07:10 7,3 C 7,3 C 7,4 C 90 % 1006,5 hPa 0,4 l/m 1,6 km/h (1 Bft) S-SW 202 0 min 0,000 mm 0 W/m 5,8 C 7,3 C 3,2 km/h (1 Bft) 100 %
25.11.2017 07:20 7,3 C 7,3 C 7,4 C 90 % 1006,6 hPa 0,4 l/m 1,6 km/h (1 Bft) S-SW 202 0 min 0,000 mm 0 W/m 5,8 C 7,3 C 6,4 km/h (2 Bft) 99 %
25.11.2017 07:30 7,3 C 7,3 C 7,3 C 91 % 1006,6 hPa 0,4 l/m 0,0 km/h (0 Bft) N 0 0 min 0,000 mm 0 W/m 5,9 C 7,3 C 0,0 km/h (0 Bft) 99 %
25.11.2017 07:40 7,3 C 7,3 C 7,3 C 91 % 1006,8 hPa 0,6 l/m 0,0 km/h (0 Bft) N 0 0 min 0,000 mm 0 W/m 5,9 C 7,3 C 0,0 km/h (0 Bft) 89 %
25.11.2017 07:50 7,2 C 7,2 C 7,3 C 91 % 1006,8 hPa 0,4 l/m 0,0 km/h (0 Bft) S-SW 202 0 min 0,000 mm 0 W/m 5,8 C 7,2 C 1,6 km/h (1 Bft) 100 %
25.11.2017 08:00 7,2 C 7,2 C 7,3 C 90 % 1006,8 hPa 0,6 l/m 1,6 km/h (1 Bft) W-SW 247 0 min 0,000 mm 0 W/m 5,7 C 7,2 C 6,4 km/h (2 Bft) 100 %
25.11.2017 08:10 7,1 C 7,1 C 7,2 C 90 % 1007,0 hPa 0,2 l/m 4,8 km/h (1 Bft) W-NW 292 0 min 0,000 mm 0 W/m 5,6 C 7,1 C 17,7 km/h (3 Bft) 100 %
25.11.2017 08:20 6,8 C 6,8 C 7,0 C 91 % 1007,1 hPa 0,4 l/m 4,8 km/h (1 Bft) W-NW 292 0 min 0,000 mm 0 W/m 5,4 C 6,8 C 9,7 km/h (2 Bft) 100 %
25.11.2017 08:30 6,6 C 6,6 C 6,8 C 90 % 1007,3 hPa 0,4 l/m 6,4 km/h (2 Bft) W-NW 292 0 min 0,000 mm 0 W/m 5,1 C 6,6 C 17,7 km/h (3 Bft) 100 %
25.11.2017 08:40 6,3 C 6,3 C 6,6 C 90 % 1007,5 hPa 0,2 l/m 8,0 km/h (2 Bft) NW 315 0 min 0,000 mm 5 W/m 4,8 C 5,0 C 19,3 km/h (3 Bft) 100 %
25.11.2017 08:50 6,0 C 6,0 C 6,3 C 90 % 1007,7 hPa 0,4 l/m 8,0 km/h (2 Bft) W-NW 292 0 min 0,000 mm 7 W/m 4,5 C 4,7 C 17,7 km/h (3 Bft) 100 %
25.11.2017 09:00 5,9 C 5,9 C 6,0 C 90 % 1008,0 hPa 0,4 l/m 6,4 km/h (2 Bft) W-NW 292 0 min 0,000 mm 7 W/m 4,4 C 5,9 C 16,1 km/h (3 Bft) 100 %
25.11.2017 09:10 5,8 C 5,8 C 5,9 C 90 % 1008,1 hPa 0,4 l/m 6,4 km/h (2 Bft) W-NW 292 0 min 0,000 mm 9 W/m 4,3 C 5,8 C 14,5 km/h (3 Bft) 99 %
25.11.2017 09:20 5,7 C 5,7 C 5,8 C 91 % 1008,3 hPa 0,4 l/m 4,8 km/h (1 Bft) W-NW 292 0 min 0,000 mm 12 W/m 4,3 C 5,7 C 11,3 km/h (2 Bft) 100 %
25.11.2017 09:30 5,7 C 5,7 C 5,8 C 90 % 1008,3 hPa 0,2 l/m 4,8 km/h (1 Bft) W 270 0 min 0,000 mm 14 W/m 4,2 C 5,7 C 11,3 km/h (2 Bft) 99 %
25.11.2017 09:40 5,7 C 5,7 C 5,7 C 90 % 1008,4 hPa 0,2 l/m 3,2 km/h (1 Bft) W 270 0 min 0,000 mm 14 W/m 4,2 C 5,7 C 9,7 km/h (2 Bft) 98 %
25.11.2017 09:50 5,6 C 5,6 C 5,7 C 90 % 1008,5 hPa 0,2 l/m 4,8 km/h (1 Bft) W 270 0 min 0,000 mm 14 W/m 4,1 C 5,6 C 12,9 km/h (3 Bft) 100 %
25.11.2017 10:00 5,6 C 5,6 C 5,6 C 90 % 1008,7 hPa 0,2 l/m 4,8 km/h (1 Bft) W 270 0 min 0,000 mm 21 W/m 4,1 C 5,6 C 14,5 km/h (3 Bft) 100 %
25.11.2017 10:10 5,6 C 5,6 C 5,6 C 90 % 1008,9 hPa 0,2 l/m 4,8 km/h (1 Bft) W 270 0 min 0,000 mm 21 W/m 4,1 C 5,6 C 11,3 km/h (2 Bft) 100 %
25.11.2017 10:20 5,6 C 5,6 C 5,6 C 90 % 1009,0 hPa 0,2 l/m 4,8 km/h (1 Bft) W 270 0 min 0,000 mm 25 W/m 4,1 C 5,6 C 9,7 km/h (2 Bft) 99 %
25.11.2017 10:30 5,6 C 5,5 C 5,6 C 90 % 1009,1 hPa 0,0 l/m 1,6 km/h (1 Bft) W 270 0 min 0,000 mm 32 W/m 4,1 C 5,6 C 6,4 km/h (2 Bft) 100 %
25.11.2017 10:40 5,6 C 5,6 C 5,6 C 90 % 1009,3 hPa 0,0 l/m 4,8 km/h (1 Bft) W 270 0 min 0,000 mm 33 W/m 4,1 C 5,6 C 12,9 km/h (3 Bft) 100 %
25.11.2017 10:50 5,5 C 5,5 C 5,6 C 90 % 1009,1 hPa 0,2 l/m 6,4 km/h (2 Bft) W-NW 292 0 min 0,000 mm 30 W/m 4,0 C 5,5 C 22,5 km/h (4 Bft) 100 %
25.11.2017 11:00 5,4 C 5,4 C 5,5 C 90 % 1009,3 hPa 0,2 l/m 6,4 km/h (2 Bft) W-SW 247 0 min 0,025 mm 30 W/m 3,9 C 5,4 C 17,7 km/h (3 Bft) 100 %
25.11.2017 11:10 5,3 C 5,3 C 5,4 C 90 % 1009,4 hPa 0,0 l/m 4,8 km/h (1 Bft) W 270 0 min 0,000 mm 33 W/m 3,8 C 5,3 C 17,7 km/h (3 Bft) 100 %
25.11.2017 11:20 5,3 C 5,3 C 5,4 C 90 % 1009,5 hPa 0,0 l/m 1,6 km/h (1 Bft) W-SW 247 0 min 0,000 mm 33 W/m 3,8 C 5,3 C 9,7 km/h (2 Bft) 100 %
25.11.2017 11:30 5,3 C 5,3 C 5,4 C 90 % 1009,4 hPa 0,2 l/m 4,8 km/h (1 Bft) S-SW 202 0 min 0,000 mm 39 W/m 3,8 C 5,3 C 14,5 km/h (3 Bft) 100 %
25.11.2017 11:40 5,3 C 5,3 C 5,3 C 90 % 1009,2 hPa 0,0 l/m 6,4 km/h (2 Bft) S-SW 202 0 min 0,000 mm 51 W/m 3,8 C 5,3 C 11,3 km/h (2 Bft) 100 %
25.11.2017 11:50 5,4 C 5,3 C 5,4 C 90 % 1009,2 hPa 0,2 l/m 8,0 km/h (2 Bft) S-SW 202 0 min 0,000 mm 69 W/m 3,9 C 4,0 C 19,3 km/h (3 Bft) 100 %
25.11.2017 12:00 5,4 C 5,4 C 5,4 C 90 % 1009,3 hPa 0,0 l/m 8,0 km/h (2 Bft) SW 225 0 min 0,025 mm 74 W/m 3,9 C 4,0 C 17,7 km/h (3 Bft) 100 %
25.11.2017 12:10 5,4 C 5,4 C 5,4 C 90 % 1009,4 hPa 0,0 l/m 6,4 km/h (2 Bft) SW 225 0 min 0,000 mm 63 W/m 3,9 C 5,4 C 16,1 km/h (3 Bft) 92 %
25.11.2017 12:20 5,4 C 5,4 C 5,4 C 90 % 1009,8 hPa 0,0 l/m 8,0 km/h (2 Bft) SW 225 0 min 0,000 mm 37 W/m 3,9 C 4,0 C 19,3 km/h (3 Bft) 100 %
25.11.2017 12:40 5,4 C 5,3 C 5,4 C 91 % 1009,8 hPa 0,0 l/m 11,9 km/h (2 Bft) S 185 0 min 0,001 mm 26 W/m 4,1 C 1,3 C 25,7 km/h (4 Bft) 98 %
25.11.2017 12:50 5,4 C 5,4 C 5,4 C 91 % 1009,8 hPa 0,0 l/m 9,1 km/h (2 Bft) S-SW 207 0 min 0,000 mm 30 W/m 4,1 C 3,2 C 20,9 km/h (4 Bft) 97 %
25.11.2017 13:00 5,4 C 5,4 C 5,4 C 90 % 1009,8 hPa 0,0 l/m 11,7 km/h (2 Bft) W-SW 252 0 min 0,025 mm 56 W/m 3,9 C 1,4 C 25,7 km/h (4 Bft) 98 %
25.11.2017 13:10 5,5 C 5,4 C 5,5 C 90 % 1009,9 hPa 0,0 l/m 12,1 km/h (2 Bft) SW 223 0 min 0,000 mm 60 W/m 4,0 C 1,3 C 25,7 km/h (4 Bft) 89 %
25.11.2017 13:20 5,6 C 5,5 C 5,6 C 90 % 1009,9 hPa 0,0 l/m 13,9 km/h (3 Bft) SW 216 0 min 0,000 mm 79 W/m 4,1 C 0,4 C 27,4 km/h (4 Bft) 97 %
25.11.2017 13:30 5,5 C 5,5 C 5,6 C 90 % 1010,1 hPa 0,0 l/m 12,7 km/h (3 Bft) SW 226 0 min 0,000 mm 69 W/m 4,0 C 0,9 C 24,1 km/h (4 Bft) 97 %
25.11.2017 13:40 5,6 C 5,5 C 5,6 C 90 % 1009,9 hPa 0,0 l/m 13,8 km/h (3 Bft) SW 214 0 min 0,000 mm 84 W/m 4,1 C 0,4 C 30,6 km/h (5 Bft) 98 %
25.11.2017 13:50 5,5 C 5,5 C 5,6 C 90 % 1010,0 hPa 0,0 l/m 18,1 km/h (3 Bft) SW 235 0 min 0,000 mm 53 W/m 4,0 C -1,8 C 33,8 km/h (5 Bft) 98 %
25.11.2017 14:00 5,4 C 5,4 C 5,5 C 90 % 1009,9 hPa 0,0 l/m 13,5 km/h (3 Bft) SW 219 0 min 0,051 mm 67 W/m 3,9 C 0,4 C 25,7 km/h (4 Bft) 97 %
25.11.2017 14:10 5,5 C 5,4 C 5,5 C 90 % 1010,0 hPa 0,0 l/m 12,0 km/h (2 Bft) SW 229 10 min 0,000 mm 172 W/m 4,0 C 1,3 C 22,5 km/h (4 Bft) 98 %
25.11.2017 14:20 5,7 C 5,5 C 5,7 C 90 % 1010,2 hPa 0,0 l/m 12,1 km/h (2 Bft) SW 232 0 min 0,000 mm 65 W/m 4,2 C 1,5 C 32,2 km/h (5 Bft) 97 %
25.11.2017 14:30 5,6 C 5,6 C 5,7 C 91 % 1010,3 hPa 0,0 l/m 14,9 km/h (3 Bft) SW 228 0 min 0,000 mm 67 W/m 4,2 C -0,1 C 32,2 km/h (5 Bft) 98 %
25.11.2017 14:40 5,6 C 5,6 C 5,6 C 91 % 1010,6 hPa 0,0 l/m 13,2 km/h (3 Bft) S-SW 201 0 min 0,000 mm 81 W/m 4,2 C 0,8 C 32,2 km/h (5 Bft) 98 %
25.11.2017 14:50 5,8 C 5,6 C 5,8 C 91 % 1010,4 hPa 0,0 l/m 14,4 km/h (3 Bft) W-SW 240 0 min 0,000 mm 69 W/m 4,4 C 0,3 C 27,4 km/h (4 Bft) 98 %
25.11.2017 15:00 5,8 C 5,8 C 5,8 C 91 % 1010,7 hPa 0,0 l/m 11,1 km/h (2 Bft) SW 225 0 min 0,051 mm 83 W/m 4,4 C 2,2 C 27,4 km/h (4 Bft) 97 %
25.11.2017 15:10 5,9 C 5,8 C 5,9 C 91 % 1010,7 hPa 0,0 l/m 15,9 km/h (3 Bft) W 263 0 min 0,000 mm 116 W/m 4,5 C -0,3 C 30,6 km/h (5 Bft) 97 %
25.11.2017 15:20 6,1 C 5,9 C 6,1 C 90 % 1010,8 hPa 0,0 l/m 11,4 km/h (2 Bft) W-SW 240 0 min 0,000 mm 49 W/m 4,6 C 2,4 C 27,4 km/h (4 Bft) 98 %
25.11.2017 15:30 6,1 C 6,1 C 6,2 C 90 % 1011,2 hPa 0,2 l/m 8,7 km/h (2 Bft) NW 304 0 min 0,000 mm 19 W/m 4,6 C 4,2 C 22,5 km/h (4 Bft) 97 %
25.11.2017 15:40 5,6 C 5,6 C 6,1 C 90 % 1011,3 hPa 0,6 l/m 6,8 km/h (2 Bft) W-NW 300 0 min 0,000 mm 9 W/m 4,1 C 5,3 C 22,5 km/h (4 Bft) 98 %
25.11.2017 15:50 5,0 C 5,0 C 5,6 C 90 % 1011,4 hPa 0,8 l/m 6,0 km/h (2 Bft) W-SW 257 0 min 0,000 mm 5 W/m 3,5 C 5,0 C 17,7 km/h (3 Bft) 98 %
25.11.2017 16:00 4,6 C 4,6 C 5,0 C 91 % 1011,6 hPa 0,6 l/m 5,6 km/h (1 Bft) W 263 0 min 0,025 mm 0 W/m 3,3 C 4,6 C 16,1 km/h (3 Bft) 97 %
25.11.2017 16:10 4,3 C 4,3 C 4,6 C 91 % 1011,7 hPa 0,2 l/m 3,6 km/h (1 Bft) W-SW 241 0 min 0,000 mm 0 W/m 3,0 C 4,3 C 11,3 km/h (2 Bft) 97 %
25.11.2017 16:20 4,2 C 4,2 C 4,3 C 91 % 1011,9 hPa 0,0 l/m 2,5 km/h (1 Bft) SW 225 0 min 0,000 mm 0 W/m 2,9 C 4,2 C 9,7 km/h (2 Bft) 97 %
25.11.2017 16:30 4,0 C 4,0 C 4,2 C 91 % 1012,1 hPa 0,0 l/m 3,0 km/h (1 Bft) SW 229 0 min 0,000 mm 0 W/m 2,7 C 4,0 C 8,0 km/h (2 Bft) 98 %
25.11.2017 16:40 3,9 C 3,9 C 4,0 C 91 % 1012,2 hPa 0,0 l/m 2,7 km/h (1 Bft) W-SW 242 0 min 0,000 mm 0 W/m 2,6 C 3,9 C 8,0 km/h (2 Bft) 100 %
25.11.2017 16:50 3,8 C 3,8 C 3,9 C 90 % 1012,4 hPa 0,0 l/m 1,5 km/h (1 Bft) W-SW 250 0 min 0,000 mm 0 W/m 2,3 C 3,8 C 9,7 km/h (2 Bft) 100 %
25.11.2017 17:00 3,7 C 3,7 C 3,8 C 90 % 1012,5 hPa 0,0 l/m 2,1 km/h (1 Bft) W-NW 288 0 min 0,000 mm 0 W/m 2,2 C 3,7 C 8,0 km/h (2 Bft) 100 %
25.11.2017 17:10 3,7 C 3,7 C 3,8 C 90 % 1012,6 hPa 0,0 l/m 1,1 km/h (1 Bft) NW 304 0 min 0,000 mm 0 W/m 2,2 C 3,7 C 4,8 km/h (1 Bft) 100 %
25.11.2017 17:20 3,8 C 3,7 C 3,8 C 90 % 1012,7 hPa 0,0 l/m 1,2 km/h (1 Bft) NW 309 0 min 0,000 mm 0 W/m 2,3 C 3,8 C 4,8 km/h (1 Bft) 100 %
25.11.2017 17:30 3,8 C 3,8 C 3,8 C 90 % 1013,0 hPa 0,2 l/m 0,3 km/h (0 Bft) W-NW 302 0 min 0,000 mm 0 W/m 2,3 C 3,8 C 4,8 km/h (1 Bft) 100 %
25.11.2017 17:40 3,9 C 3,8 C 3,9 C 90 % 1013,2 hPa 0,0 l/m 0,5 km/h (0 Bft) NW 321 0 min 0,000 mm 0 W/m 2,4 C 3,9 C 4,8 km/h (1 Bft) 100 %
25.11.2017 17:50 3,9 C 3,9 C 3,9 C 91 % 1013,6 hPa 0,0 l/m 0,6 km/h (0 Bft) NW 318 0 min 0,000 mm 0 W/m 2,6 C 3,9 C 4,8 km/h (1 Bft) 100 %
25.11.2017 18:00 3,9 C 3,8 C 3,9 C 90 % 1013,7 hPa 0,0 l/m 2,7 km/h (1 Bft) NW 316 0 min 0,000 mm 0 W/m 2,4 C 3,9 C 6,4 km/h (2 Bft) 99 %
25.11.2017 18:10 3,8 C 3,8 C 3,9 C 90 % 1014,0 hPa 0,2 l/m 2,0 km/h (1 Bft) N-NW 336 0 min 0,000 mm 0 W/m 2,3 C 3,8 C 8,0 km/h (2 Bft) 100 %
25.11.2017 18:20 3,7 C 3,7 C 3,8 C 90 % 1014,2 hPa 0,2 l/m 3,4 km/h (1 Bft) N-NW 339 0 min 0,000 mm 0 W/m 2,2 C 3,7 C 16,1 km/h (3 Bft) 100 %
25.11.2017 18:30 3,6 C 3,6 C 3,7 C 91 % 1014,4 hPa 0,2 l/m 3,8 km/h (1 Bft) N 349 0 min 0,000 mm 0 W/m 2,3 C 3,6 C 11,3 km/h (2 Bft) 100 %
25.11.2017 18:40 3,5 C 3,5 C 3,6 C 90 % 1014,8 hPa 0,2 l/m 2,1 km/h (1 Bft) N 355 0 min 0,000 mm 0 W/m 2,0 C 3,5 C 9,7 km/h (2 Bft) 100 %
25.11.2017 18:50 3,3 C 3,3 C 3,5 C 91 % 1015,0 hPa 0,0 l/m 2,3 km/h (1 Bft) N-NW 329 0 min 0,000 mm 0 W/m 2,0 C 3,3 C 11,3 km/h (2 Bft) 100 %
25.11.2017 19:00 3,2 C 3,2 C 3,3 C 91 % 1015,0 hPa 0,0 l/m 1,4 km/h (1 Bft) NW 320 0 min 0,000 mm 0 W/m 1,9 C 3,2 C 8,0 km/h (2 Bft) 100 %
25.11.2017 19:10 3,2 C 3,2 C 3,2 C 90 % 1015,1 hPa 0,0 l/m 0,0 km/h (0 Bft) NW 325 0 min 0,000 mm 0 W/m 1,7 C 3,2 C 0,0 km/h (0 Bft) 100 %
25.11.2017 19:20 3,1 C 3,1 C 3,2 C 90 % 1015,3 hPa 0,0 l/m 0,2 km/h (0 Bft) NW 323 0 min 0,000 mm 0 W/m 1,6 C 3,1 C 4,8 km/h (1 Bft) 100 %
25.11.2017 19:30 3,1 C 3,1 C 3,1 C 90 % 1015,4 hPa 0,0 l/m 0,0 km/h (0 Bft) NW 322 0 min 0,000 mm 0 W/m 1,6 C 3,1 C 0,0 km/h (0 Bft) 100 %
25.11.2017 19:40 3,0 C 3,0 C 3,1 C 91 % 1015,7 hPa 0,0 l/m 0,0 km/h (0 Bft) NW 322 0 min 0,000 mm 0 W/m 1,7 C 3,0 C 0,0 km/h (0 Bft) 100 %
25.11.2017 19:50 2,9 C 2,9 C 3,0 C 91 % 1015,8 hPa 0,0 l/m 0,0 km/h (0 Bft) NW 322 0 min 0,000 mm 0 W/m 1,6 C 2,9 C 0,0 km/h (0 Bft) 100 %
25.11.2017 20:00 2,9 C 2,9 C 2,9 C 91 % 1016,1 hPa 0,0 l/m 0,0 km/h (0 Bft) NW 322 0 min 0,000 mm 0 W/m 1,6 C 2,9 C 0,0 km/h (0 Bft) 100 %
25.11.2017 20:10 2,8 C 2,8 C 2,9 C 91 % 1016,3 hPa 0,0 l/m 0,0 km/h (0 Bft) NW 322 0 min 0,000 mm 0 W/m 1,5 C 2,8 C 0,0 km/h (0 Bft) 99 %
25.11.2017 20:20 2,8 C 2,8 C 2,8 C 90 % 1016,4 hPa 0,0 l/m 0,3 km/h (0 Bft) NW 316 0 min 0,000 mm 0 W/m 1,3 C 2,8 C 3,2 km/h (1 Bft) 99 %
25.11.2017 20:30 2,7 C 2,7 C 2,8 C 90 % 1016,4 hPa 0,0 l/m 0,0 km/h (0 Bft) NW 315 0 min 0,000 mm 0 W/m 1,2 C 2,7 C 0,0 km/h (0 Bft) 100 %
25.11.2017 20:40 2,7 C 2,7 C 2,8 C 90 % 1016,7 hPa 0,0 l/m 0,0 km/h (0 Bft) NW 315 0 min 0,000 mm 0 W/m 1,2 C 2,7 C 0,0 km/h (0 Bft) 100 %
25.11.2017 20:50 2,7 C 2,7 C 2,7 C 90 % 1016,9 hPa 0,0 l/m 0,0 km/h (0 Bft) NW 315 0 min 0,000 mm 0 W/m 1,2 C 2,7 C 0,0 km/h (0 Bft) 100 %
25.11.2017 21:00 2,6 C 2,6 C 2,7 C 90 % 1017,1 hPa 0,0 l/m 0,2 km/h (0 Bft) NW 315 0 min 0,000 mm 0 W/m 1,1 C 2,6 C 3,2 km/h (1 Bft) 100 %
25.11.2017 21:10 2,6 C 2,6 C 2,6 C 91 % 1017,2 hPa 0,0 l/m 0,0 km/h (0 Bft) N 0 0 min 0,000 mm 0 W/m 1,3 C 2,6 C 0,0 km/h (0 Bft) 100 %
25.11.2017 21:20 2,5 C 2,4 C 2,6 C 91 % 1017,4 hPa 0,0 l/m 0,0 km/h (0 Bft) N 0 0 min 0,000 mm 0 W/m 1,2 C 2,5 C 0,0 km/h (0 Bft) 100 %
25.11.2017 21:30 2,3 C 2,3 C 2,5 C 91 % 1017,6 hPa 0,0 l/m 0,0 km/h (0 Bft) N 0 0 min 0,000 mm 0 W/m 1,0 C 2,3 C 0,0 km/h (0 Bft) 100 %
25.11.2017 21:40 2,3 C 2,3 C 2,3 C 91 % 1017,6 hPa 0,0 l/m 0,0 km/h (0 Bft) N 0 0 min 0,000 mm 0 W/m 1,0 C 2,3 C 0,0 km/h (0 Bft) 100 %
25.11.2017 21:50 2,3 C 2,3 C 2,3 C 91 % 1017,8 hPa 0,0 l/m 0,0 km/h (0 Bft) N 0 0 min 0,000 mm 0 W/m 1,0 C 2,3 C 0,0 km/h (0 Bft) 100 %
25.11.2017 22:00 2,4 C 2,3 C 2,4 C 91 % 1017,9 hPa 0,0 l/m 0,0 km/h (0 Bft) N 0 0 min 0,000 mm 0 W/m 1,1 C 2,4 C 0,0 km/h (0 Bft) 100 %
25.11.2017 22:10 2,3 C 2,3 C 2,4 C 91 % 1018,1 hPa 0,0 l/m 0,0 km/h (0 Bft) N 0 0 min 0,000 mm 0 W/m 1,0 C 2,3 C 0,0 km/h (0 Bft) 100 %
25.11.2017 22:20 2,3 C 2,3 C 2,3 C 91 % 1018,2 hPa 0,0 l/m 0,0 km/h (0 Bft) NW 315 0 min 0,000 mm 0 W/m 1,0 C 2,3 C 3,2 km/h (1 Bft) 100 %
25.11.2017 22:30 2,2 C 2,2 C 2,3 C 91 % 1018,2 hPa 0,0 l/m 0,0 km/h (0 Bft) NW 315 0 min 0,000 mm 0 W/m 0,9 C 2,2 C 3,2 km/h (1 Bft) 100 %
25.11.2017 22:40 2,1 C 2,1 C 2,2 C 90 % 1018,2 hPa 0,0 l/m 0,0 km/h (0 Bft) N 0 0 min 0,000 mm 0 W/m 0,6 C 2,1 C 0,0 km/h (0 Bft) 100 %
25.11.2017 22:50 1,9 C 1,9 C 2,1 C 91 % 1018,4 hPa 0,0 l/m 0,0 km/h (0 Bft) NW 315 0 min 0,000 mm 0 W/m 0,6 C 1,9 C 1,6 km/h (1 Bft) 100 %
25.11.2017 23:00 1,9 C 1,9 C 1,9 C 91 % 1018,3 hPa 0,0 l/m 0,0 km/h (0 Bft) N 0 0 min 0,000 mm 0 W/m 0,6 C 1,9 C 0,0 km/h (0 Bft) 100 %
25.11.2017 23:10 1,9 C 1,9 C 1,9 C 91 % 1018,5 hPa 0,0 l/m 0,0 km/h (0 Bft) N 0 0 min 0,000 mm 0 W/m 0,6 C 1,9 C 0,0 km/h (0 Bft) 100 %
25.11.2017 23:20 1,9 C 1,9 C 1,9 C 91 % 1018,7 hPa 0,0 l/m 0,0 km/h (0 Bft) SW 225 0 min 0,000 mm 0 W/m 0,6 C 1,9 C 4,8 km/h (1 Bft) 100 %
25.11.2017 23:30 1,8 C 1,8 C 1,9 C 91 % 1018,8 hPa 0,0 l/m 1,6 km/h (1 Bft) SW 225 0 min 0,000 mm 0 W/m 0,5 C 1,8 C 9,7 km/h (2 Bft) 100 %
25.11.2017 23:40 1,8 C 1,8 C 1,8 C 91 % 1018,9 hPa 0,0 l/m 0,0 km/h (0 Bft) SW 225 0 min 0,000 mm 0 W/m 0,5 C 1,8 C 4,8 km/h (1 Bft) 100 %
25.11.2017 23:50 1,8 C 1,8 C 1,8 C 91 % 1019,0 hPa 0,0 l/m 1,6 km/h (1 Bft) SW 225 0 min 0,000 mm 0 W/m 0,5 C 1,8 C 9,7 km/h (2 Bft) 100 %
_ Min-Zeit 23:30 23:30 23:40 00:00 07:10 - 03:00 - - - - - 23:30 13:50 03:00 02:20
Minimum _ 1,8 C 1,8 C 1,8 C 90 % 1006,5 hPa - 0,0 km/h (0 Bft) - - - - - 0,5 C -1,8 C 0,0 km/h (0 Bft) 88 %
_ Max-Zeit 00:00 01:20 00:00 03:00 23:50 15:50 13:50 - - 14:10 14:00 14:10 03:00 01:10 13:50 07:50
Maximum _ 8,8 C 8,8 C 8,8 C 94 % 1019,0 hPa 0,8 l/m 18,1 km/h
SW (3 Bft)
- - 10 min 0,051 mm 172 W/m 7,8 C 8,8 C 33,8 km/h
W-SW (5 Bft)
100 %
Durchschnitt _ 5,6 C 5,6 C 5,7 C 90 % 1011,3 hPa #18,2 l/m 3,7 km/h (1 Bft) SW - #10 min. #0,203 mm 45 W/m 4,2 C 5,0 C 9,6 km/h (2 Bft) 98 %
PRIVATE WETTERSTATION BILLIGHEIM-ALLFELD - www.neckar-odenwald-wetter.de - Holger Sonntag